createdAt,value
2018-07-21T00:00:55.370Z,0.00
2018-07-21T00:01:55.379Z,0.00
2018-07-21T00:02:55.344Z,0.00
2018-07-21T00:03:55.337Z,0.00
2018-07-21T00:04:55.279Z,0.00
2018-07-21T00:05:55.312Z,0.00
2018-07-21T00:06:55.453Z,0.00
2018-07-21T00:07:55.289Z,0.00
2018-07-21T00:08:55.277Z,0.00
2018-07-21T00:09:55.268Z,0.00
2018-07-21T00:10:55.272Z,0.00
2018-07-21T00:11:55.229Z,0.00
2018-07-21T00:12:55.196Z,0.00
2018-07-21T00:13:55.235Z,0.00
2018-07-21T00:14:55.213Z,0.00
2018-07-21T00:15:55.155Z,0.00
2018-07-21T00:16:55.386Z,0.00
2018-07-21T00:17:55.180Z,0.00
2018-07-21T00:18:55.193Z,0.00
2018-07-21T00:19:55.154Z,0.00
2018-07-21T00:20:55.148Z,0.00
2018-07-21T00:21:55.167Z,0.00
2018-07-21T00:22:55.084Z,0.00
2018-07-21T00:23:55.110Z,0.00
2018-07-21T00:24:55.103Z,0.00
2018-07-21T00:25:55.103Z,0.00
2018-07-21T00:26:55.132Z,0.00
2018-07-21T00:27:55.068Z,0.00
2018-07-21T00:28:55.014Z,0.00
2018-07-21T00:29:55.048Z,0.00
2018-07-21T00:30:55.046Z,0.00
2018-07-21T00:31:55.092Z,0.00
2018-07-21T00:32:55.024Z,0.00
2018-07-21T00:33:54.975Z,0.00
2018-07-21T00:34:54.999Z,0.00
2018-07-21T00:35:54.987Z,0.00
2018-07-21T00:36:55.000Z,0.00
2018-07-21T00:37:54.968Z,0.00
2018-07-21T00:38:54.910Z,0.00
2018-07-21T00:39:54.939Z,0.00
2018-07-21T00:40:54.932Z,0.00
2018-07-21T00:41:54.942Z,0.00
2018-07-21T00:42:54.865Z,0.00
2018-07-21T00:43:54.910Z,0.00
2018-07-21T00:44:54.887Z,0.00
2018-07-21T00:45:54.881Z,0.00
2018-07-21T00:46:54.890Z,0.00
2018-07-21T00:47:54.852Z,0.00
2018-07-21T00:48:54.843Z,0.00
2018-07-21T00:49:54.833Z,0.00
2018-07-21T00:50:54.823Z,0.00
2018-07-21T00:51:54.849Z,0.00
2018-07-21T00:52:54.807Z,0.00
2018-07-21T00:53:54.746Z,0.00
2018-07-21T00:54:54.778Z,0.00
2018-07-21T00:55:54.781Z,0.00
2018-07-21T00:56:54.735Z,0.00
2018-07-21T00:57:54.744Z,0.00
2018-07-21T00:58:54.737Z,0.00
2018-07-21T00:59:54.732Z,0.00
2018-07-21T01:00:54.715Z,0.00
2018-07-21T01:01:54.731Z,0.00
2018-07-21T01:02:54.689Z,0.00
2018-07-21T01:03:54.680Z,0.00
2018-07-21T01:04:54.668Z,0.00
2018-07-21T01:05:54.765Z,0.00
2018-07-21T01:06:54.676Z,0.00
2018-07-21T01:07:54.660Z,0.00
2018-07-21T01:08:54.624Z,0.00
2018-07-21T01:09:54.622Z,0.00
2018-07-21T01:10:54.615Z,0.00
2018-07-21T01:11:54.763Z,0.00
2018-07-21T01:12:54.586Z,0.00
2018-07-21T01:13:54.570Z,0.00
2018-07-21T01:14:54.571Z,0.00
2018-07-21T01:15:54.567Z,0.00
2018-07-21T01:16:54.580Z,0.00
2018-07-21T01:17:54.533Z,0.00
2018-07-21T01:18:54.510Z,0.00
2018-07-21T01:19:54.519Z,0.00
2018-07-21T01:20:54.504Z,0.00
2018-07-21T01:21:54.436Z,0.00
2018-07-21T01:22:54.500Z,0.00
2018-07-21T01:23:54.430Z,0.00
2018-07-21T01:24:54.458Z,0.00
2018-07-21T01:25:54.446Z,0.00
2018-07-21T01:26:54.433Z,0.00
2018-07-21T01:27:54.416Z,0.00
2018-07-21T01:28:54.418Z,0.00
2018-07-21T01:29:54.407Z,0.00
2018-07-21T01:30:54.390Z,0.00
2018-07-21T01:31:54.381Z,0.00
2018-07-21T01:32:54.398Z,0.00
2018-07-21T01:33:54.358Z,0.00
2018-07-21T01:34:54.346Z,0.00
2018-07-21T01:35:54.292Z,0.00
2018-07-21T01:36:54.321Z,0.00
2018-07-21T01:37:54.340Z,0.00
2018-07-21T01:38:54.314Z,0.00
2018-07-21T01:39:54.286Z,0.00
2018-07-21T01:40:54.247Z,0.00
2018-07-21T01:41:54.270Z,0.00
2018-07-21T01:42:54.235Z,0.00
2018-07-21T01:43:54.204Z,0.00
2018-07-21T01:44:54.240Z,0.00
2018-07-21T01:45:54.229Z,0.00
2018-07-21T01:46:54.220Z,0.00
2018-07-21T01:47:54.186Z,0.00
2018-07-21T01:48:54.156Z,0.00
2018-07-21T01:49:54.178Z,0.00
2018-07-21T01:50:54.169Z,0.00
2018-07-21T01:51:54.169Z,0.00
2018-07-21T01:52:54.178Z,0.00
2018-07-21T01:53:54.143Z,0.00
2018-07-21T01:54:54.127Z,0.00
2018-07-21T01:55:54.115Z,0.00
2018-07-21T01:56:54.110Z,0.00
2018-07-21T01:57:54.147Z,0.00
2018-07-21T01:58:54.085Z,0.00
2018-07-21T01:59:54.070Z,0.00
2018-07-21T02:00:54.060Z,0.00
2018-07-21T02:01:54.051Z,0.00
2018-07-21T02:02:54.031Z,0.00
2018-07-21T02:03:54.037Z,0.00
2018-07-21T02:04:54.019Z,0.00
2018-07-21T02:05:54.006Z,0.00
2018-07-21T02:06:53.996Z,0.00
2018-07-21T02:07:53.964Z,0.00
2018-07-21T02:08:54.066Z,0.00
2018-07-21T02:09:53.964Z,0.00
2018-07-21T02:10:53.955Z,0.00
2018-07-21T02:11:53.938Z,0.00
2018-07-21T02:12:53.955Z,0.00
2018-07-21T02:13:53.923Z,0.00
2018-07-21T02:14:53.871Z,0.00
2018-07-21T02:15:53.901Z,0.00
2018-07-21T02:16:53.891Z,0.00
2018-07-21T02:17:53.900Z,0.00
2018-07-21T02:18:53.874Z,0.00
2018-07-21T02:19:53.810Z,0.00
2018-07-21T02:20:53.846Z,0.00
2018-07-21T02:21:53.830Z,0.00
2018-07-21T02:22:53.856Z,0.00
2018-07-21T02:23:53.811Z,0.00
2018-07-21T02:24:53.807Z,0.00
2018-07-21T02:25:53.750Z,0.00
2018-07-21T02:26:53.776Z,0.00
2018-07-21T02:27:53.797Z,0.00
2018-07-21T02:28:53.772Z,0.00
2018-07-21T02:29:53.747Z,0.00
2018-07-21T02:30:53.741Z,0.00
2018-07-21T02:31:53.738Z,0.00
2018-07-21T02:32:53.745Z,0.00
2018-07-21T02:33:53.715Z,0.00
2018-07-21T02:34:53.692Z,0.00
2018-07-21T02:35:53.677Z,0.00
2018-07-21T02:36:53.671Z,0.00
2018-07-21T02:37:53.667Z,0.00
2018-07-21T02:38:53.637Z,0.00
2018-07-21T02:39:53.641Z,0.00
2018-07-21T02:40:53.632Z,0.00
2018-07-21T02:41:53.614Z,0.00
2018-07-21T02:42:53.562Z,0.00
2018-07-21T02:43:53.623Z,0.00
2018-07-21T02:44:53.585Z,0.00
2018-07-21T02:45:53.572Z,0.00
2018-07-21T02:46:53.569Z,0.00
2018-07-21T02:47:53.511Z,0.00
2018-07-21T02:48:53.556Z,0.00
2018-07-21T02:49:53.524Z,0.00
2018-07-21T02:50:53.517Z,0.00
2018-07-21T02:51:53.511Z,0.00
2018-07-21T02:52:53.491Z,0.00
2018-07-21T02:53:53.514Z,0.00
2018-07-21T02:54:53.469Z,0.00
2018-07-21T02:55:53.459Z,0.00
2018-07-21T02:56:53.447Z,0.00
2018-07-21T02:57:53.440Z,0.00
2018-07-21T02:58:53.450Z,0.00
2018-07-21T02:59:53.422Z,0.00
2018-07-21T03:00:53.418Z,0.00
2018-07-21T03:01:53.399Z,0.00
2018-07-21T03:02:53.380Z,0.00
2018-07-21T03:03:53.403Z,4.00
2018-07-21T03:04:53.315Z,4.00
2018-07-21T03:05:53.352Z,4.00
2018-07-21T03:06:53.338Z,4.00
2018-07-21T03:07:53.338Z,0.00
2018-07-21T03:08:53.354Z,4.00
2018-07-21T03:09:53.345Z,4.00
2018-07-21T03:10:53.255Z,4.00
2018-07-21T03:11:53.383Z,4.00
2018-07-21T03:12:53.272Z,4.00
2018-07-21T03:13:53.256Z,8.00
2018-07-21T03:14:53.258Z,8.00
2018-07-21T03:15:53.199Z,8.00
2018-07-21T03:16:53.247Z,8.00
2018-07-21T03:17:53.200Z,12.00
2018-07-21T03:18:53.197Z,12.00
2018-07-21T03:19:53.193Z,12.00
2018-07-21T03:20:53.189Z,16.00
2018-07-21T03:21:53.137Z,16.00
2018-07-21T03:22:53.133Z,20.00
2018-07-21T03:23:53.200Z,20.00
2018-07-21T03:24:53.148Z,24.00
2018-07-21T03:25:53.142Z,28.00
2018-07-21T03:26:53.123Z,28.00
2018-07-21T03:27:53.074Z,32.00
2018-07-21T03:28:53.132Z,36.00
2018-07-21T03:29:53.090Z,40.00
2018-07-21T03:30:53.122Z,48.00
2018-07-21T03:31:53.068Z,52.00
2018-07-21T03:32:53.059Z,56.00
2018-07-21T03:33:53.081Z,60.00
2018-07-21T03:34:53.033Z,68.00
2018-07-21T03:35:53.030Z,76.00
2018-07-21T03:36:53.016Z,84.00
2018-07-21T03:37:53.006Z,88.00
2018-07-21T03:38:53.019Z,100.00
2018-07-21T03:39:52.990Z,108.00
2018-07-21T03:40:52.970Z,116.00
2018-07-21T03:41:52.971Z,124.00
2018-07-21T03:42:52.948Z,128.00
2018-07-21T03:43:52.967Z,136.00
2018-07-21T03:44:52.897Z,140.00
2018-07-21T03:45:52.916Z,152.00
2018-07-21T03:46:52.904Z,160.00
2018-07-21T03:47:52.894Z,168.00
2018-07-21T03:48:52.880Z,184.00
2018-07-21T03:49:52.903Z,200.00
2018-07-21T03:50:52.814Z,220.00
2018-07-21T03:51:52.849Z,236.00
2018-07-21T03:52:52.843Z,256.00
2018-07-21T03:53:52.855Z,272.00
2018-07-21T03:54:52.855Z,288.00
2018-07-21T03:55:52.822Z,300.00
2018-07-21T03:56:52.800Z,308.00
2018-07-21T03:57:52.791Z,320.00
2018-07-21T03:58:52.777Z,332.00
2018-07-21T03:59:52.794Z,352.00
2018-07-21T04:00:52.749Z,372.00
2018-07-21T04:01:52.747Z,400.00
2018-07-21T04:02:52.733Z,416.00
2018-07-21T04:03:52.720Z,432.00
2018-07-21T04:04:52.697Z,448.00
2018-07-21T04:05:52.695Z,468.00
2018-07-21T04:06:52.641Z,500.00
2018-07-21T04:07:52.682Z,532.00
2018-07-21T04:08:52.667Z,568.00
2018-07-21T04:09:52.685Z,600.00
2018-07-21T04:10:52.600Z,636.00
2018-07-21T04:11:52.627Z,672.00
2018-07-21T04:12:52.616Z,720.00
2018-07-21T04:13:52.610Z,764.00
2018-07-21T04:14:52.730Z,808.00
2018-07-21T04:15:52.588Z,856.00
2018-07-21T04:16:52.534Z,904.00
2018-07-21T04:17:52.569Z,948.00
2018-07-21T04:18:52.559Z,984.00
2018-07-21T04:19:52.540Z,1008.00
2018-07-21T04:20:52.504Z,1032.00
2018-07-21T04:21:52.521Z,1056.00
2018-07-21T04:22:52.508Z,1068.00
2018-07-21T04:23:52.502Z,1068.00
2018-07-21T04:24:52.550Z,1072.00
2018-07-21T04:25:52.482Z,1080.00
2018-07-21T04:26:52.466Z,1088.00
2018-07-21T04:27:52.460Z,1100.00
2018-07-21T04:28:52.457Z,1108.00
2018-07-21T04:29:52.460Z,1140.00
2018-07-21T04:30:52.425Z,1188.00
2018-07-21T04:31:52.412Z,1216.00
2018-07-21T04:32:52.409Z,1228.00
2018-07-21T04:33:52.386Z,1240.00
2018-07-21T04:34:52.412Z,1228.00
2018-07-21T04:35:52.328Z,1196.00
2018-07-21T04:36:52.317Z,1144.00
2018-07-21T04:37:52.342Z,1076.00
2018-07-21T04:38:52.331Z,1012.00
2018-07-21T04:39:52.344Z,956.00
2018-07-21T04:40:52.319Z,924.00
2018-07-21T04:41:52.300Z,904.00
2018-07-21T04:42:52.290Z,908.00
2018-07-21T04:43:52.278Z,924.00
2018-07-21T04:44:52.299Z,948.00
2018-07-21T04:45:52.261Z,976.00
2018-07-21T04:46:52.261Z,980.00
2018-07-21T04:47:52.239Z,972.00
2018-07-21T04:48:52.225Z,952.00
2018-07-21T04:49:52.262Z,924.00
2018-07-21T04:50:52.204Z,908.00
2018-07-21T04:51:52.200Z,892.00
2018-07-21T04:52:52.143Z,876.00
2018-07-21T04:53:52.175Z,852.00
2018-07-21T04:54:52.188Z,836.00
2018-07-21T04:55:52.146Z,840.00
2018-07-21T04:56:52.139Z,856.00
2018-07-21T04:57:52.142Z,880.00
2018-07-21T04:58:52.126Z,912.00
2018-07-21T04:59:52.107Z,968.00
2018-07-21T05:00:52.172Z,1020.00
2018-07-21T05:01:52.130Z,1056.00
2018-07-21T05:02:52.078Z,1104.00
2018-07-21T05:03:52.079Z,1148.00
2018-07-21T05:04:52.053Z,1208.00
2018-07-21T05:05:52.067Z,1252.00
2018-07-21T05:06:52.038Z,1288.00
2018-07-21T05:07:52.079Z,1328.00
2018-07-21T05:08:51.966Z,1372.00
2018-07-21T05:09:52.021Z,1412.00
2018-07-21T05:10:52.014Z,1464.00
2018-07-21T05:11:51.982Z,1524.00
2018-07-21T05:12:51.966Z,1596.00
2018-07-21T05:13:51.912Z,1680.00
2018-07-21T05:14:51.958Z,1768.00
2018-07-21T05:15:51.975Z,1816.00
2018-07-21T05:16:51.966Z,1856.00
2018-07-21T05:17:51.940Z,1912.00
2018-07-21T05:18:51.893Z,1964.00
2018-07-21T05:19:51.844Z,1988.00
2018-07-21T05:20:52.024Z,2040.00
2018-07-21T05:21:51.866Z,2124.00
2018-07-21T05:22:51.860Z,2220.00
2018-07-21T05:23:51.867Z,2348.00
2018-07-21T05:24:51.832Z,2524.00
2018-07-21T05:25:51.851Z,2668.00
2018-07-21T05:26:51.817Z,2756.00
2018-07-21T05:27:51.804Z,2784.00
2018-07-21T05:28:51.789Z,2764.00
2018-07-21T05:29:51.785Z,2728.00
2018-07-21T05:30:51.798Z,2680.00
2018-07-21T05:31:51.766Z,2644.00
2018-07-21T05:32:51.750Z,2628.00
2018-07-21T05:33:51.748Z,2632.00
2018-07-21T05:34:51.731Z,2668.00
2018-07-21T05:35:51.749Z,2712.00
2018-07-21T05:36:51.789Z,2764.00
2018-07-21T05:37:51.724Z,2828.00
2018-07-21T05:38:51.683Z,2900.00
2018-07-21T05:39:51.701Z,2968.00
2018-07-21T05:40:51.698Z,3060.00
2018-07-21T05:41:51.654Z,3128.00
2018-07-21T05:42:51.654Z,3192.00
2018-07-21T05:43:51.632Z,3268.00
2018-07-21T05:44:51.616Z,3380.00
2018-07-21T05:45:51.651Z,3516.00
2018-07-21T05:46:51.574Z,3612.00
2018-07-21T05:47:51.568Z,3728.00
2018-07-21T05:48:51.593Z,3852.00
2018-07-21T05:49:51.565Z,3912.00
2018-07-21T05:50:51.562Z,4012.00
2018-07-21T05:51:51.552Z,4200.00
2018-07-21T05:52:51.530Z,4448.00
2018-07-21T05:53:51.536Z,4768.00
2018-07-21T05:54:51.530Z,5080.00
2018-07-21T05:55:51.526Z,5476.00
2018-07-21T05:56:51.492Z,5840.00
2018-07-21T05:57:51.475Z,6116.00
2018-07-21T05:58:51.469Z,6356.00
2018-07-21T05:59:51.469Z,6528.00
2018-07-21T06:00:51.485Z,6656.00
2018-07-21T06:01:51.434Z,6788.00
2018-07-21T06:02:51.522Z,6960.00
2018-07-21T06:03:51.380Z,7116.00
2018-07-21T06:04:51.418Z,7260.00
2018-07-21T06:05:51.414Z,7484.00
2018-07-21T06:06:51.479Z,7752.00
2018-07-21T06:07:51.380Z,7952.00
2018-07-21T06:08:51.359Z,8024.00
2018-07-21T06:09:51.342Z,8040.00
2018-07-21T06:10:51.457Z,8060.00
2018-07-21T06:11:51.336Z,8060.00
2018-07-21T06:12:51.386Z,8076.00
2018-07-21T06:13:51.310Z,8048.00
2018-07-21T06:14:51.299Z,7972.00
2018-07-21T06:15:51.303Z,7860.00
2018-07-21T06:16:51.348Z,7800.00
2018-07-21T06:17:51.256Z,7784.00
2018-07-21T06:18:51.251Z,7776.00
2018-07-21T06:19:51.200Z,7788.00
2018-07-21T06:20:51.249Z,7792.00
2018-07-21T06:21:51.228Z,7880.00
2018-07-21T06:22:51.211Z,7992.00
2018-07-21T06:23:51.182Z,8060.00
2018-07-21T06:24:51.144Z,8136.00
2018-07-21T06:25:51.205Z,8256.00
2018-07-21T06:26:51.160Z,8376.00
2018-07-21T06:27:51.157Z,8456.00
2018-07-21T06:28:51.135Z,8604.00
2018-07-21T06:29:51.129Z,8916.00
2018-07-21T06:30:51.182Z,9312.00
2018-07-21T06:31:51.128Z,9720.00
2018-07-21T06:32:51.109Z,10204.00
2018-07-21T06:33:51.102Z,10884.00
2018-07-21T06:34:51.067Z,11816.00
2018-07-21T06:35:51.101Z,13108.00
2018-07-21T06:36:51.080Z,12580.00
2018-07-21T06:37:51.039Z,11464.00
2018-07-21T06:38:51.041Z,11592.00
2018-07-21T06:39:50.983Z,12028.00
2018-07-21T06:40:51.013Z,12284.00
2018-07-21T06:41:51.048Z,12648.00
2018-07-21T06:42:50.946Z,13232.00
2018-07-21T06:43:51.010Z,13696.00
2018-07-21T06:44:50.975Z,14096.00
2018-07-21T06:45:51.032Z,14436.00
2018-07-21T06:46:50.976Z,17376.00
2018-07-21T06:47:50.950Z,21600.00
2018-07-21T06:48:50.940Z,21088.00
2018-07-21T06:49:50.865Z,24000.00
2018-07-21T06:50:50.943Z,19776.00
2018-07-21T06:51:50.924Z,16928.00
2018-07-21T06:52:50.908Z,15912.00
2018-07-21T06:53:50.887Z,18560.00
2018-07-21T06:54:50.822Z,19680.00
2018-07-21T06:55:50.860Z,19264.00
2018-07-21T06:56:50.860Z,21600.00
2018-07-21T06:57:50.820Z,20992.00
2018-07-21T06:58:50.817Z,20992.00
2018-07-21T06:59:50.831Z,20800.00
2018-07-21T07:00:50.799Z,20640.00
2018-07-21T07:01:50.824Z,19488.00
2018-07-21T07:02:50.789Z,19552.00
2018-07-21T07:03:50.718Z,17888.00
2018-07-21T07:04:50.753Z,17504.00
2018-07-21T07:05:50.801Z,18336.00
2018-07-21T07:06:50.757Z,19328.00
2018-07-21T07:07:50.676Z,18816.00
2018-07-21T07:08:50.708Z,18752.00
2018-07-21T07:09:50.709Z,20928.00
2018-07-21T07:10:50.686Z,27424.00
2018-07-21T07:11:50.727Z,29184.00
2018-07-21T07:12:50.664Z,27680.00
2018-07-21T07:13:50.654Z,23904.00
2018-07-21T07:14:50.652Z,24640.00
2018-07-21T07:15:50.650Z,23200.00
2018-07-21T07:16:50.644Z,26208.00
2018-07-21T07:17:50.632Z,27008.00
2018-07-21T07:18:50.604Z,24128.00
2018-07-21T07:19:50.594Z,24736.00
2018-07-21T07:20:50.581Z,22176.00
2018-07-21T07:21:50.594Z,24672.00
2018-07-21T07:22:50.558Z,28416.00
2018-07-21T07:23:50.546Z,26592.00
2018-07-21T07:24:50.542Z,24256.00
2018-07-21T07:25:50.533Z,22368.00
2018-07-21T07:26:50.536Z,25792.00
2018-07-21T07:27:51.645Z,23744.00
2018-07-21T07:28:50.495Z,26048.00
2018-07-21T07:29:50.482Z,26176.00
2018-07-21T07:30:50.476Z,29792.00
2018-07-21T07:31:50.503Z,23264.00
2018-07-21T07:32:50.476Z,28576.00
2018-07-21T07:33:50.457Z,28640.00
2018-07-21T07:34:50.427Z,30080.00
2018-07-21T07:35:50.424Z,33312.00
2018-07-21T07:36:50.408Z,39904.00
2018-07-21T07:37:50.431Z,35520.00
2018-07-21T07:38:50.385Z,33792.00
2018-07-21T07:39:50.379Z,35104.00
2018-07-21T07:40:50.378Z,41152.00
2018-07-21T07:41:50.354Z,43808.00
2018-07-21T07:42:50.381Z,36864.00
2018-07-21T07:43:50.335Z,34528.00
2018-07-21T07:44:50.321Z,35040.00
2018-07-21T07:45:50.316Z,32064.00
2018-07-21T07:46:50.309Z,53216.00
2018-07-21T07:47:50.315Z,41664.00
2018-07-21T07:48:50.235Z,53216.00
2018-07-21T07:49:50.271Z,34432.00
2018-07-21T07:50:50.224Z,25632.00
2018-07-21T07:51:50.250Z,21472.00
2018-07-21T07:52:50.274Z,28832.00
2018-07-21T07:53:50.232Z,44832.00
2018-07-21T07:54:50.221Z,44096.00
2018-07-21T07:55:50.207Z,35008.00
2018-07-21T07:56:50.159Z,27264.00
2018-07-21T07:57:50.215Z,22816.00
2018-07-21T07:58:50.199Z,21440.00
2018-07-21T07:59:50.119Z,28064.00
2018-07-21T08:00:50.159Z,30720.00
2018-07-21T08:01:50.155Z,18304.00
2018-07-21T08:02:50.318Z,46432.00
2018-07-21T08:03:50.125Z,42560.00
2018-07-21T08:04:50.112Z,29184.00
2018-07-21T08:05:50.122Z,29472.00
2018-07-21T08:06:50.090Z,19520.00
2018-07-21T08:07:50.116Z,23360.00
2018-07-21T08:08:50.030Z,25792.00
2018-07-21T08:09:50.016Z,32608.00
2018-07-21T08:10:50.055Z,44736.00
2018-07-21T08:11:50.044Z,29056.00
2018-07-21T08:12:50.132Z,15180.00
2018-07-21T08:13:50.029Z,18272.00
2018-07-21T08:14:50.007Z,31104.00
2018-07-21T08:15:49.997Z,52896.00
2018-07-21T08:16:49.948Z,46496.00
2018-07-21T08:17:50.007Z,29856.00
2018-07-21T08:18:49.965Z,32224.00
2018-07-21T08:19:50.072Z,22144.00
2018-07-21T08:20:49.945Z,22688.00
2018-07-21T08:21:49.930Z,52256.00
2018-07-21T08:22:49.950Z,50112.00
2018-07-21T08:23:49.914Z,44320.00
2018-07-21T08:24:49.910Z,43744.00
2018-07-21T08:25:49.892Z,52480.00
2018-07-21T08:26:49.889Z,58208.00
2018-07-21T08:27:49.900Z,59776.00
2018-07-21T08:28:49.860Z,63360.00
2018-07-21T08:29:49.850Z,47392.00
2018-07-21T08:30:49.834Z,26944.00
2018-07-21T08:31:49.824Z,20192.00
2018-07-21T08:32:49.840Z,18720.00
2018-07-21T08:33:49.811Z,17592.00
2018-07-21T08:34:49.798Z,18048.00
2018-07-21T08:35:49.797Z,19520.00
2018-07-21T08:36:49.779Z,19904.00
2018-07-21T08:37:49.959Z,19616.00
2018-07-21T08:38:49.776Z,19808.00
2018-07-21T08:39:49.748Z,19872.00
2018-07-21T08:40:49.739Z,20320.00
2018-07-21T08:41:49.741Z,20832.00
2018-07-21T08:42:49.744Z,21184.00
2018-07-21T08:43:49.700Z,20736.00
2018-07-21T08:44:49.689Z,19584.00
2018-07-21T08:45:49.693Z,17196.00
2018-07-21T08:46:49.632Z,17600.00
2018-07-21T08:47:49.675Z,19456.00
2018-07-21T08:48:49.725Z,20416.00
2018-07-21T08:49:49.790Z,19552.00
2018-07-21T08:50:49.632Z,21312.00
2018-07-21T08:51:49.616Z,19040.00
2018-07-21T08:52:49.615Z,20320.00
2018-07-21T08:53:49.972Z,19936.00
2018-07-21T08:54:49.586Z,21024.00
2018-07-21T08:55:49.580Z,20704.00
2018-07-21T08:56:49.574Z,19232.00
2018-07-21T08:57:49.560Z,19264.00
2018-07-21T08:58:49.571Z,17792.00
2018-07-21T08:59:49.542Z,17024.00
2018-07-21T09:00:49.541Z,16488.00
2018-07-21T09:01:49.516Z,16508.00
2018-07-21T09:02:49.510Z,16776.00
2018-07-21T09:03:49.519Z,17280.00
2018-07-21T09:04:49.481Z,18016.00
2018-07-21T09:05:49.513Z,18560.00
2018-07-21T09:06:49.463Z,18624.00
2018-07-21T09:07:49.446Z,18144.00
2018-07-21T09:08:49.469Z,17856.00
2018-07-21T09:09:49.436Z,18912.00
2018-07-21T09:10:49.422Z,17888.00
2018-07-21T09:11:49.412Z,17504.00
2018-07-21T09:12:49.399Z,17120.00
2018-07-21T09:13:49.413Z,16896.00
2018-07-21T09:14:49.374Z,16500.00
2018-07-21T09:15:49.368Z,15956.00
2018-07-21T09:16:49.361Z,15540.00
2018-07-21T09:17:49.348Z,15136.00
2018-07-21T09:18:49.361Z,14904.00
2018-07-21T09:19:49.323Z,14744.00
2018-07-21T09:20:49.310Z,14656.00
2018-07-21T09:21:49.304Z,14924.00
2018-07-21T09:22:49.297Z,15316.00
2018-07-21T09:23:49.313Z,15692.00
2018-07-21T09:24:49.271Z,16056.00
2018-07-21T09:25:49.267Z,16332.00
2018-07-21T09:26:49.246Z,17056.00
2018-07-21T09:27:49.237Z,17696.00
2018-07-21T09:28:49.255Z,17600.00
2018-07-21T09:29:49.175Z,18688.00
2018-07-21T09:30:49.219Z,20128.00
2018-07-21T09:31:49.205Z,18752.00
2018-07-21T09:32:49.188Z,18368.00
2018-07-21T09:33:49.217Z,18272.00
2018-07-21T09:34:49.167Z,19104.00
2018-07-21T09:35:49.160Z,19424.00
2018-07-21T09:36:49.147Z,19424.00
2018-07-21T09:37:49.096Z,19744.00
2018-07-21T09:38:49.147Z,20768.00
2018-07-21T09:39:49.124Z,20512.00
2018-07-21T09:40:49.099Z,21280.00
2018-07-21T09:41:49.102Z,21536.00
2018-07-21T09:42:49.079Z,20768.00
2018-07-21T09:43:49.105Z,20480.00
2018-07-21T09:44:49.055Z,19904.00
2018-07-21T09:45:49.061Z,19136.00
2018-07-21T09:46:49.039Z,18112.00
2018-07-21T09:47:48.998Z,17012.00
2018-07-21T09:48:49.018Z,16172.00
2018-07-21T09:49:49.008Z,15456.00
2018-07-21T09:50:49.001Z,14792.00
2018-07-21T09:51:48.994Z,14204.00
2018-07-21T09:52:48.940Z,13700.00
2018-07-21T09:53:48.988Z,13248.00
2018-07-21T09:54:48.961Z,12840.00
2018-07-21T09:55:49.078Z,12544.00
2018-07-21T09:56:48.930Z,12328.00
2018-07-21T09:57:48.924Z,12128.00
2018-07-21T09:58:49.070Z,11948.00
2018-07-21T09:59:48.904Z,11780.00
2018-07-21T10:00:48.897Z,11608.00
2018-07-21T10:01:48.879Z,11448.00
2018-07-21T10:02:48.865Z,11332.00
2018-07-21T10:03:48.888Z,11212.00
2018-07-21T10:04:48.806Z,11108.00
2018-07-21T10:05:48.790Z,11016.00
2018-07-21T10:06:48.834Z,10940.00
2018-07-21T10:07:48.812Z,10868.00
2018-07-21T10:08:48.873Z,10800.00
2018-07-21T10:09:48.803Z,10748.00
2018-07-21T10:10:48.793Z,10688.00
2018-07-21T10:11:48.732Z,10636.00
2018-07-21T10:12:48.770Z,10588.00
2018-07-21T10:13:48.934Z,10520.00
2018-07-21T10:14:48.742Z,10488.00
2018-07-21T10:15:48.733Z,10460.00
2018-07-21T10:16:48.720Z,10436.00
2018-07-21T10:17:48.707Z,10332.00
2018-07-21T10:18:48.704Z,10156.00
2018-07-21T10:19:48.715Z,10188.00
2018-07-21T10:20:48.681Z,10164.00
2018-07-21T10:21:48.681Z,10136.00
2018-07-21T10:22:48.660Z,9992.00
2018-07-21T10:23:48.646Z,9936.00
2018-07-21T10:24:48.660Z,9876.00
2018-07-21T10:25:48.628Z,9700.00
2018-07-21T10:26:48.622Z,9728.00
2018-07-21T10:27:48.608Z,9588.00
2018-07-21T10:28:48.599Z,9600.00
2018-07-21T10:29:48.596Z,9652.00
2018-07-21T10:30:48.574Z,9860.00
2018-07-21T10:31:48.577Z,10248.00
2018-07-21T10:32:48.518Z,10440.00
2018-07-21T10:33:48.548Z,10364.00
2018-07-21T10:34:48.521Z,10228.00
2018-07-21T10:35:48.529Z,10152.00
2018-07-21T10:36:48.519Z,10116.00
2018-07-21T10:37:48.519Z,10076.00
2018-07-21T10:38:48.501Z,10056.00
2018-07-21T10:39:48.507Z,9992.00
2018-07-21T10:40:48.480Z,9900.00
2018-07-21T10:41:48.461Z,9792.00
2018-07-21T10:42:48.452Z,9692.00
2018-07-21T10:43:48.446Z,9616.00
2018-07-21T10:44:48.458Z,9560.00
2018-07-21T10:45:48.418Z,9496.00
2018-07-21T10:46:48.423Z,9424.00
2018-07-21T10:47:48.405Z,9328.00
2018-07-21T10:48:48.383Z,9272.00
2018-07-21T10:49:48.396Z,9204.00
2018-07-21T10:50:48.388Z,9132.00
2018-07-21T10:51:48.316Z,9060.00
2018-07-21T10:52:48.341Z,8992.00
2018-07-21T10:53:48.297Z,8944.00
2018-07-21T10:54:48.351Z,8916.00
2018-07-21T10:55:48.309Z,8892.00
2018-07-21T10:56:48.309Z,8856.00
2018-07-21T10:57:48.354Z,8824.00
2018-07-21T10:58:48.291Z,8780.00
2018-07-21T10:59:48.365Z,8752.00
2018-07-21T11:00:48.268Z,8768.00
2018-07-21T11:01:48.233Z,8768.00
2018-07-21T11:02:48.246Z,8752.00
2018-07-21T11:03:48.198Z,8760.00
2018-07-21T11:04:48.243Z,8760.00
2018-07-21T11:05:48.218Z,8716.00
2018-07-21T11:06:55.731Z,8692.00
2018-07-21T11:07:48.193Z,8696.00
2018-07-21T11:08:48.148Z,8596.00
2018-07-21T11:09:48.195Z,8624.00
2018-07-21T11:10:48.157Z,8552.00
2018-07-21T11:11:48.100Z,8572.00
2018-07-21T11:12:48.138Z,8596.00
2018-07-21T11:13:48.135Z,8604.00
2018-07-21T11:14:48.143Z,8564.00
2018-07-21T11:15:48.120Z,8524.00
2018-07-21T11:16:48.090Z,8512.00
2018-07-21T11:17:48.078Z,8492.00
2018-07-21T11:18:48.071Z,8476.00
2018-07-21T11:19:48.090Z,8724.00
2018-07-21T11:20:48.084Z,8868.00
2018-07-21T11:21:48.044Z,8916.00
2018-07-21T11:22:48.039Z,8828.00
2018-07-21T11:23:48.033Z,8724.00
2018-07-21T11:24:48.049Z,8584.00
2018-07-21T11:25:48.003Z,8384.00
2018-07-21T11:26:47.984Z,8280.00
2018-07-21T11:27:48.003Z,8240.00
2018-07-21T11:28:47.966Z,8284.00
2018-07-21T11:29:47.984Z,8260.00
2018-07-21T11:30:47.945Z,8172.00
2018-07-21T11:31:47.948Z,8152.00
2018-07-21T11:32:47.923Z,8068.00
2018-07-21T11:33:47.865Z,8004.00
2018-07-21T11:34:47.932Z,7988.00
2018-07-21T11:35:48.054Z,8004.00
2018-07-21T11:36:47.888Z,8028.00
2018-07-21T11:37:47.871Z,8040.00
2018-07-21T11:38:47.852Z,8064.00
2018-07-21T11:39:47.872Z,8092.00
2018-07-21T11:40:47.843Z,8096.00
2018-07-21T11:41:47.831Z,8096.00
2018-07-21T11:42:47.816Z,8052.00
2018-07-21T11:43:47.810Z,8032.00
2018-07-21T11:44:47.978Z,8032.00
2018-07-21T11:45:47.788Z,8000.00
2018-07-21T11:46:47.800Z,8008.00
2018-07-21T11:47:47.769Z,8004.00
2018-07-21T11:48:47.714Z,8004.00
2018-07-21T11:49:47.728Z,7980.00
2018-07-21T11:50:47.694Z,7964.00
2018-07-21T11:51:47.720Z,7972.00
2018-07-21T11:52:47.717Z,7996.00
2018-07-21T11:53:47.704Z,8016.00
2018-07-21T11:54:47.739Z,8056.00
2018-07-21T11:55:47.720Z,8116.00
2018-07-21T11:56:47.689Z,8228.00
2018-07-21T11:57:47.659Z,8372.00
2018-07-21T11:58:47.669Z,8508.00
2018-07-21T11:59:47.645Z,8660.00
2018-07-21T12:00:47.667Z,8808.00
2018-07-21T12:01:47.632Z,8980.00
2018-07-21T12:02:47.614Z,9120.00
2018-07-21T12:03:47.601Z,9272.00
2018-07-21T12:04:47.589Z,9468.00
2018-07-21T12:05:47.648Z,9652.00
2018-07-21T12:06:47.563Z,9792.00
2018-07-21T12:07:47.563Z,9916.00
2018-07-21T12:08:47.544Z,10024.00
2018-07-21T12:09:47.547Z,10140.00
2018-07-21T12:10:47.557Z,10228.00
2018-07-21T12:11:47.521Z,10228.00
2018-07-21T12:12:47.508Z,10184.00
2018-07-21T12:13:47.496Z,10092.00
2018-07-21T12:14:47.483Z,9980.00
2018-07-21T12:15:47.503Z,9880.00
2018-07-21T12:16:47.422Z,9784.00
2018-07-21T12:17:47.412Z,9700.00
2018-07-21T12:18:47.442Z,9648.00
2018-07-21T12:19:47.428Z,9592.00